createdAt,value
2019-01-23T00:05:34.822Z,74.95
2019-01-23T00:11:54.897Z,74.60
2019-01-23T00:17:06.806Z,74.83
2019-01-23T00:20:15.831Z,74.64
2019-01-23T00:23:24.943Z,74.87
2019-01-23T00:25:54.812Z,74.37
2019-01-23T00:31:21.158Z,74.52
2019-01-23T00:34:30.337Z,74.13
2019-01-23T00:37:02.401Z,74.22
2019-01-23T00:39:50.833Z,74.02
2019-01-23T00:45:16.046Z,73.72
2019-01-23T00:48:25.020Z,73.69
2019-01-23T00:54:01.183Z,73.68
2019-01-23T00:59:10.602Z,72.99
2019-01-23T01:04:50.198Z,73.42
2019-01-23T01:07:39.264Z,73.66
2019-01-23T01:10:50.037Z,73.55
2019-01-23T01:13:20.405Z,73.12
2019-01-23T01:16:34.913Z,72.81
2019-01-23T01:28:16.277Z,72.54
2019-01-23T01:33:48.697Z,72.38
2019-01-23T01:36:21.330Z,72.30
2019-01-23T01:38:53.816Z,72.38
2019-01-23T01:42:04.055Z,72.87
2019-01-23T01:45:13.107Z,72.18
2019-01-23T01:48:01.930Z,72.18
2019-01-23T01:51:10.992Z,72.03
2019-01-23T01:56:56.060Z,72.46
2019-01-23T01:59:26.008Z,73.10
2019-01-23T02:01:56.301Z,72.99
2019-01-23T02:05:05.963Z,72.87
2019-01-23T02:10:38.051Z,72.41
2019-01-23T02:16:56.392Z,72.30
2019-01-23T02:22:21.150Z,72.91
2019-01-23T02:25:32.171Z,72.68
2019-01-23T02:28:41.779Z,72.86
2019-01-23T02:31:12.857Z,72.38
2019-01-23T02:33:43.334Z,71.58
2019-01-23T02:36:52.464Z,72.30
2019-01-23T02:42:23.310Z,72.70
2019-01-23T02:45:33.193Z,72.72
2019-01-23T02:48:02.883Z,72.99
2019-01-23T02:50:32.462Z,72.80
2019-01-23T02:56:08.692Z,72.45
2019-01-23T03:02:07.991Z,72.23
2019-01-23T03:04:37.516Z,72.82
2019-01-23T03:07:46.721Z,72.73
2019-01-23T03:13:31.986Z,73.41
2019-01-23T03:16:40.729Z,72.92
2019-01-23T03:19:22.582Z,72.48
2019-01-23T03:24:55.888Z,72.27
2019-01-23T03:28:04.809Z,72.53
2019-01-23T03:30:48.051Z,72.66
2019-01-23T03:36:31.015Z,72.53
2019-01-23T03:39:01.658Z,73.46
2019-01-23T03:41:31.330Z,73.35
2019-01-23T03:44:01.181Z,72.91
2019-01-23T03:49:40.700Z,73.83
2019-01-23T03:55:44.064Z,74.49
2019-01-23T03:58:13.692Z,74.92
2019-01-23T04:06:44.366Z,74.41
2019-01-23T04:09:14.528Z,74.71
2019-01-23T04:11:44.500Z,74.86
2019-01-23T04:14:13.922Z,74.57
2019-01-23T04:16:43.462Z,74.77
2019-01-23T04:22:23.652Z,74.56
2019-01-23T04:24:54.116Z,74.35
2019-01-23T04:28:03.159Z,74.57
2019-01-23T04:36:37.842Z,75.22
2019-01-23T04:39:11.793Z,75.65
2019-01-23T04:42:20.914Z,75.94
2019-01-23T04:48:20.267Z,75.74
2019-01-23T04:51:09.052Z,76.31
2019-01-23T04:56:50.273Z,76.38
2019-01-23T04:59:59.011Z,76.46
2019-01-23T05:05:43.559Z,76.63
2019-01-23T05:08:54.879Z,76.82
2019-01-23T05:14:33.555Z,76.07
2019-01-23T05:17:03.560Z,75.94
2019-01-23T05:22:29.811Z,75.95
2019-01-23T05:24:59.326Z,76.54
2019-01-23T05:30:25.530Z,77.08
2019-01-23T05:33:34.460Z,77.26
2019-01-23T05:42:21.350Z,77.74
2019-01-23T05:51:02.950Z,78.37
2019-01-23T05:56:34.226Z,78.58
2019-01-23T05:59:03.786Z,79.49
2019-01-23T06:04:29.425Z,79.49
2019-01-23T06:10:12.929Z,79.87
2019-01-23T06:15:52.455Z,79.74
2019-01-23T06:18:41.755Z,79.82
2019-01-23T06:26:51.137Z,80.05
2019-01-23T06:32:32.525Z,79.62
2019-01-23T06:38:16.278Z,79.42
2019-01-23T06:41:25.285Z,79.34
2019-01-23T06:43:56.962Z,79.19
2019-01-23T06:49:35.915Z,79.28
2019-01-23T06:52:05.902Z,79.35
2019-01-23T06:55:15.495Z,79.03
2019-01-23T06:57:58.493Z,79.55
2019-01-23T07:00:31.320Z,79.66
2019-01-23T07:06:15.570Z,78.86
2019-01-23T07:08:45.272Z,79.31
2019-01-23T07:14:30.467Z,78.94
2019-01-23T07:17:20.667Z,79.09
2019-01-23T07:19:51.473Z,79.63
2019-01-23T07:25:18.060Z,79.37
2019-01-23T07:30:45.190Z,78.82
2019-01-23T07:33:53.929Z,79.04
2019-01-23T07:36:23.575Z,79.29
2019-01-23T07:38:55.690Z,79.03
2019-01-23T07:42:03.371Z,79.42
2019-01-23T07:47:43.309Z,78.87
2019-01-23T07:50:55.261Z,78.91
2019-01-23T07:53:26.326Z,78.62
2019-01-23T07:55:55.814Z,78.72
2019-01-23T07:59:05.858Z,79.00
2019-01-23T08:01:35.592Z,78.85
2019-01-23T08:04:05.333Z,78.72
2019-01-23T08:09:50.006Z,78.52
2019-01-23T08:15:27.352Z,78.72
2019-01-23T08:18:36.847Z,78.55
2019-01-23T08:21:45.930Z,78.80
2019-01-23T08:24:15.374Z,78.47
2019-01-23T08:26:57.811Z,78.80
2019-01-23T08:32:37.286Z,78.38
2019-01-23T08:35:07.789Z,78.28
2019-01-23T08:40:27.216Z,78.37
2019-01-23T08:43:36.149Z,78.64
2019-01-23T08:46:44.884Z,78.19
2019-01-23T08:49:14.912Z,78.02
2019-01-23T08:54:47.077Z,77.90
2019-01-23T08:57:17.596Z,78.06
2019-01-23T09:00:27.224Z,78.23
2019-01-23T09:02:58.712Z,78.07
2019-01-23T09:06:08.005Z,78.16
2019-01-23T09:08:58.449Z,78.06
2019-01-23T09:14:29.838Z,77.89
2019-01-23T09:17:38.511Z,78.01
2019-01-23T09:20:48.196Z,77.63
2019-01-23T09:26:32.876Z,77.46
2019-01-23T09:29:02.328Z,77.22
2019-01-23T09:32:10.422Z,77.18
2019-01-23T09:35:01.580Z,77.79
2019-01-23T09:38:09.421Z,78.02
2019-01-23T09:44:21.956Z,77.49
2019-01-23T09:47:17.151Z,77.42
2019-01-23T09:50:28.052Z,77.18
2019-01-23T09:53:35.831Z,76.63
2019-01-23T09:56:45.249Z,76.98
2019-01-23T10:02:11.464Z,76.44
2019-01-23T10:05:21.159Z,76.30
2019-01-23T10:08:32.069Z,75.82
2019-01-23T10:11:01.503Z,75.96
2019-01-23T10:13:50.012Z,75.63
2019-01-23T10:16:20.569Z,75.86
2019-01-23T10:19:30.224Z,75.28
2019-01-23T10:28:29.149Z,75.32
2019-01-23T10:30:59.100Z,75.52
2019-01-23T10:34:08.816Z,75.66
2019-01-23T10:39:53.521Z,76.26
2019-01-23T10:43:02.400Z,75.83
2019-01-23T10:45:31.952Z,75.27
2019-01-23T10:54:10.461Z,75.69
2019-01-23T10:59:43.968Z,75.16
2019-01-23T11:02:14.927Z,75.29
2019-01-23T11:05:23.686Z,75.67
2019-01-23T11:13:57.806Z,75.26
2019-01-23T11:16:28.208Z,75.85
2019-01-23T11:19:38.051Z,74.83
2019-01-23T11:25:23.387Z,74.45
2019-01-23T11:28:13.009Z,75.20
2019-01-23T11:36:44.610Z,75.34
2019-01-23T11:39:55.825Z,75.33
2019-01-23T11:43:05.880Z,74.95
2019-01-23T11:45:57.137Z,74.89
2019-01-23T11:48:27.872Z,75.37
2019-01-23T11:54:11.776Z,75.25
2019-01-23T11:57:21.257Z,75.63
2019-01-23T12:05:52.448Z,75.17
2019-01-23T12:08:24.459Z,75.44
2019-01-23T12:10:54.129Z,74.86
2019-01-23T12:14:03.038Z,75.00
2019-01-23T12:19:47.848Z,74.79
2019-01-23T12:22:56.648Z,75.51
2019-01-23T12:25:27.318Z,75.71
2019-01-23T12:28:16.852Z,75.34
2019-01-23T12:31:07.140Z,75.28
2019-01-23T12:39:53.527Z,75.25
2019-01-23T12:43:03.114Z,75.59
2019-01-23T12:45:52.354Z,75.38
2019-01-23T12:51:47.759Z,75.64
2019-01-23T12:54:17.456Z,75.82
2019-01-23T12:57:27.161Z,76.13
2019-01-23T12:59:56.674Z,76.42
2019-01-23T13:03:05.721Z,76.36
2019-01-23T13:08:53.183Z,76.38
2019-01-23T13:12:02.640Z,76.63
2019-01-23T13:14:32.656Z,77.05
2019-01-23T13:19:11.419Z,77.05
2019-01-23T13:22:20.491Z,76.91
2019-01-23T13:28:02.312Z,77.29
2019-01-23T13:33:23.498Z,76.85
2019-01-23T13:39:05.568Z,76.96
2019-01-23T13:44:50.321Z,77.57
2019-01-23T13:47:20.318Z,77.13
2019-01-23T13:49:50.193Z,77.48
2019-01-23T13:52:19.671Z,77.41
2019-01-23T13:54:50.157Z,77.44
2019-01-23T13:57:20.991Z,77.35
2019-01-23T13:59:50.491Z,77.71
2019-01-23T14:02:21.480Z,77.54
2019-01-23T14:04:51.543Z,77.97
2019-01-23T14:08:01.175Z,77.77
2019-01-23T14:13:33.474Z,78.02
2019-01-23T14:16:03.133Z,78.26
2019-01-23T14:18:32.857Z,77.92
2019-01-23T14:21:02.524Z,77.72
2019-01-23T14:23:32.750Z,78.39
2019-01-23T14:26:03.512Z,78.70
2019-01-23T14:28:33.400Z,78.39
2019-01-23T14:31:46.815Z,78.98
2019-01-23T14:34:17.027Z,78.64
2019-01-23T14:40:15.241Z,78.58
2019-01-23T14:42:45.905Z,78.99
2019-01-23T14:45:54.863Z,78.57
2019-01-23T14:54:11.497Z,78.22
2019-01-23T15:02:28.944Z,78.53
2019-01-23T15:05:18.153Z,78.28
2019-01-23T15:08:08.241Z,78.41
2019-01-23T15:14:04.279Z,77.84
2019-01-23T15:16:34.645Z,78.71
2019-01-23T15:19:04.484Z,78.30
2019-01-23T15:21:53.748Z,78.23
2019-01-23T15:24:23.605Z,77.98
2019-01-23T15:26:53.112Z,77.99
2019-01-23T15:30:02.777Z,78.11
2019-01-23T15:36:07.547Z,78.25
2019-01-23T15:41:38.785Z,78.23
2019-01-23T15:44:09.948Z,78.08
2019-01-23T15:47:18.623Z,78.42
2019-01-23T15:52:50.516Z,78.02
2019-01-23T15:56:00.963Z,78.01
2019-01-23T15:59:10.616Z,77.75
2019-01-23T16:07:58.708Z,77.88
2019-01-23T16:10:29.306Z,77.08
2019-01-23T16:13:19.623Z,77.63
2019-01-23T16:18:32.310Z,77.68
2019-01-23T16:21:02.285Z,77.23
2019-01-23T16:23:32.003Z,77.44
2019-01-23T16:26:01.837Z,77.56
2019-01-23T16:28:31.253Z,77.44
2019-01-23T16:31:01.167Z,77.53
2019-01-23T16:33:31.154Z,77.35
2019-01-23T16:36:02.989Z,77.18
2019-01-23T16:41:38.263Z,76.86
2019-01-23T16:44:26.717Z,76.84
2019-01-23T16:47:09.027Z,77.03
2019-01-23T16:53:02.201Z,76.85
2019-01-23T16:55:32.096Z,76.88
2019-01-23T16:58:02.129Z,76.97
2019-01-23T17:01:11.034Z,76.99
2019-01-23T17:06:36.998Z,77.00
2019-01-23T17:09:47.694Z,76.88
2019-01-23T17:15:14.246Z,76.95
2019-01-23T17:17:45.509Z,77.40
2019-01-23T17:20:20.265Z,77.27
2019-01-23T17:22:50.216Z,77.36
2019-01-23T17:25:20.360Z,77.00
2019-01-23T17:28:30.978Z,77.03
2019-01-23T17:34:10.791Z,77.28
2019-01-23T17:36:40.872Z,77.00
2019-01-23T17:39:50.255Z,77.24
2019-01-23T17:42:20.312Z,77.14
2019-01-23T17:44:50.014Z,77.38
2019-01-23T17:47:59.561Z,77.57
2019-01-23T17:53:55.656Z,77.52
2019-01-23T17:59:50.468Z,76.77
2019-01-23T18:05:50.974Z,77.36
2019-01-23T18:08:16.243Z,77.49
2019-01-23T18:11:05.725Z,77.15
2019-01-23T18:16:44.642Z,76.75
2019-01-23T18:19:16.143Z,76.83
2019-01-23T18:21:45.715Z,77.02
2019-01-23T18:24:15.832Z,76.89
2019-01-23T18:26:45.952Z,76.92
2019-01-23T18:29:15.860Z,77.10
2019-01-23T18:32:04.165Z,76.56
2019-01-23T18:35:11.949Z,76.67
2019-01-23T18:38:20.712Z,76.76
2019-01-23T18:41:28.113Z,76.55
2019-01-23T18:44:35.566Z,76.56
2019-01-23T18:47:43.641Z,76.33
2019-01-23T18:50:51.084Z,76.75
2019-01-23T18:54:00.141Z,76.59
2019-01-23T19:02:57.560Z,76.70
2019-01-23T19:08:43.428Z,76.68
2019-01-23T19:11:52.948Z,76.23
2019-01-23T19:14:25.724Z,76.40
2019-01-23T19:20:24.196Z,76.25
2019-01-23T19:28:33.101Z,76.44
2019-01-23T19:31:42.925Z,76.38
2019-01-23T19:34:12.726Z,76.21
2019-01-23T19:36:42.926Z,76.69
2019-01-23T19:39:53.047Z,76.58
2019-01-23T19:45:38.349Z,76.31
2019-01-23T19:48:47.585Z,76.45
2019-01-23T19:51:18.658Z,76.19
2019-01-23T20:02:59.105Z,76.36
2019-01-23T20:08:32.449Z,76.01
2019-01-23T20:11:43.540Z,76.59
2019-01-23T20:14:33.545Z,76.28
2019-01-23T20:17:03.348Z,76.18
2019-01-23T20:19:33.672Z,75.74
2019-01-23T20:22:04.144Z,76.25
2019-01-23T20:24:33.901Z,75.78
2019-01-23T20:27:06.563Z,76.28
2019-01-23T20:29:58.030Z,76.30
2019-01-23T20:33:07.056Z,76.15
2019-01-23T20:36:19.804Z,75.87
2019-01-23T20:42:15.425Z,76.15
2019-01-23T20:44:45.513Z,76.50
2019-01-23T20:47:54.679Z,76.55
2019-01-23T20:56:41.083Z,76.18
2019-01-23T21:02:25.360Z,76.39
2019-01-23T21:04:56.390Z,76.30
2019-01-23T21:07:26.110Z,76.89
2019-01-23T21:09:56.487Z,76.43
2019-01-23T21:12:28.491Z,76.40
2019-01-23T21:14:59.187Z,76.69
2019-01-23T21:18:08.404Z,76.77
2019-01-23T21:24:06.625Z,76.27
2019-01-23T21:26:36.918Z,76.59
2019-01-23T21:29:06.354Z,76.23
2019-01-23T21:31:37.325Z,76.26
2019-01-23T21:34:07.617Z,76.66
2019-01-23T21:36:37.113Z,76.93
2019-01-23T21:39:28.410Z,76.41
2019-01-23T21:41:57.951Z,76.54
2019-01-23T21:44:27.760Z,76.60
2019-01-23T21:46:57.208Z,76.20
2019-01-23T21:49:26.625Z,76.19
2019-01-23T21:51:56.143Z,76.23
2019-01-23T21:54:25.707Z,76.14
2019-01-23T21:56:55.237Z,76.75
2019-01-23T21:59:25.982Z,76.24
2019-01-23T22:01:55.685Z,76.60
2019-01-23T22:04:25.388Z,76.26
2019-01-23T22:06:55.291Z,76.26
2019-01-23T22:09:25.206Z,75.80
2019-01-23T22:11:54.606Z,75.82
2019-01-23T22:15:04.626Z,76.59
2019-01-23T22:20:56.011Z,76.36
2019-01-23T22:26:34.078Z,76.68
2019-01-23T22:32:13.784Z,76.68
2019-01-23T22:35:22.755Z,76.39
2019-01-23T22:37:55.489Z,76.59
2019-01-23T22:40:25.732Z,76.44
2019-01-23T22:42:55.232Z,75.82
2019-01-23T22:45:24.803Z,76.06
2019-01-23T22:47:57.208Z,76.33
2019-01-23T22:50:31.364Z,75.96
2019-01-23T22:53:40.444Z,76.00
2019-01-23T22:56:11.167Z,76.22
2019-01-23T23:02:06.132Z,76.21
2019-01-23T23:08:01.334Z,76.71
2019-01-23T23:10:31.993Z,76.64
2019-01-23T23:13:42.464Z,76.37
2019-01-23T23:22:02.929Z,76.58
2019-01-23T23:25:11.960Z,77.18
2019-01-23T23:36:29.164Z,76.97
2019-01-23T23:42:20.150Z,77.00
2019-01-23T23:44:51.613Z,77.26
2019-01-23T23:51:01.499Z,77.37
2019-01-23T23:56:46.135Z,77.23
2019-01-23T23:59:34.888Z,77.27
